createdAt,value
2019-05-11T00:01:00.105Z,10.70
2019-05-11T00:03:28.876Z,10.00
2019-05-11T00:05:57.629Z,10.57
2019-05-11T00:08:26.480Z,9.30
2019-05-11T00:10:55.225Z,10.30
2019-05-11T00:13:24.055Z,8.63
2019-05-11T00:15:52.738Z,9.50
2019-05-11T00:18:21.492Z,9.33
2019-05-11T00:20:50.251Z,9.40
2019-05-11T00:23:19.062Z,9.60
2019-05-11T00:25:47.897Z,8.50
2019-05-11T00:28:16.731Z,8.50
2019-05-11T00:30:45.407Z,8.35
2019-05-11T00:33:14.158Z,9.30
2019-05-11T00:35:42.921Z,8.90
2019-05-11T00:38:11.676Z,8.73
2019-05-11T00:40:40.363Z,9.17
2019-05-11T00:43:09.134Z,8.60
2019-05-11T00:45:37.813Z,8.47
2019-05-11T00:48:06.660Z,8.17
2019-05-11T00:50:39.153Z,8.53
2019-05-11T00:53:05.911Z,9.03
2019-05-11T00:55:34.654Z,8.38
2019-05-11T00:58:03.477Z,7.83
2019-05-11T01:00:32.225Z,8.23
2019-05-11T01:03:00.955Z,8.00
2019-05-11T01:05:29.714Z,8.47
2019-05-11T01:07:58.528Z,8.60
2019-05-11T01:10:41.163Z,8.48
2019-05-11T01:12:57.680Z,8.35
2019-05-11T01:15:26.433Z,8.63
2019-05-11T01:17:55.252Z,9.20
2019-05-11T01:20:24.000Z,8.18
2019-05-11T01:22:52.767Z,8.25
2019-05-11T01:25:21.506Z,8.53
2019-05-11T01:27:50.253Z,8.63
2019-05-11T01:30:19.210Z,8.60
2019-05-11T01:32:47.954Z,9.00
2019-05-11T01:35:16.983Z,9.40
2019-05-11T01:37:45.746Z,9.38
2019-05-11T01:40:14.966Z,8.97
2019-05-11T01:42:43.691Z,9.13
2019-05-11T01:45:12.622Z,9.57
2019-05-11T01:47:41.387Z,9.43
2019-05-11T01:50:10.332Z,10.25
2019-05-11T01:52:38.993Z,9.73
2019-05-11T01:55:07.810Z,11.23
2019-05-11T01:57:36.621Z,10.72
2019-05-11T02:00:08.802Z,10.05
2019-05-11T02:02:37.556Z,9.88
2019-05-11T02:05:25.177Z,8.50
2019-05-11T02:07:53.932Z,9.03
2019-05-11T02:10:22.677Z,9.17
2019-05-11T02:12:51.742Z,10.17
2019-05-11T02:15:20.558Z,9.50
2019-05-11T02:17:49.305Z,9.95
2019-05-11T02:20:18.327Z,8.57
2019-05-11T02:22:47.074Z,9.78
2019-05-11T02:25:15.915Z,9.30
2019-05-11T02:27:44.647Z,9.20
2019-05-11T02:30:13.859Z,9.88
2019-05-11T02:32:42.625Z,10.05
2019-05-11T02:35:11.643Z,8.85
2019-05-11T02:37:40.395Z,9.53
2019-05-11T02:40:10.716Z,9.87
2019-05-11T02:42:39.463Z,9.15
2019-05-11T02:45:08.674Z,9.43
2019-05-11T02:47:37.424Z,9.03
2019-05-11T02:50:06.472Z,9.73
2019-05-11T02:52:35.580Z,9.40
2019-05-11T02:55:05.228Z,8.53
2019-05-11T03:00:02.009Z,8.75
2019-05-11T03:02:30.790Z,8.95
2019-05-11T03:04:59.478Z,9.17
2019-05-11T03:07:28.226Z,8.23
2019-05-11T03:09:56.909Z,9.27
2019-05-11T03:12:25.657Z,8.60
2019-05-11T03:14:54.479Z,8.13
2019-05-11T03:17:24.869Z,9.13
2019-05-11T03:19:53.545Z,7.80
2019-05-11T03:22:22.293Z,7.80
2019-05-11T03:24:51.034Z,7.37
2019-05-11T03:27:19.800Z,7.23
2019-05-11T03:29:48.485Z,7.50
2019-05-11T03:32:17.236Z,8.23
2019-05-11T03:34:45.992Z,7.47
2019-05-11T03:37:14.736Z,7.57
2019-05-11T03:39:43.482Z,7.40
2019-05-11T03:42:14.999Z,7.70
2019-05-11T03:44:42.617Z,7.10
2019-05-11T03:47:11.370Z,6.60
2019-05-11T03:49:40.119Z,7.10
2019-05-11T03:52:08.872Z,7.30
2019-05-11T03:54:37.548Z,7.70
2019-05-11T03:57:06.432Z,7.65
2019-05-11T03:59:35.133Z,8.03
2019-05-11T04:02:03.952Z,7.43
2019-05-11T04:04:32.703Z,7.92
2019-05-11T04:07:01.469Z,8.13
2019-05-11T04:09:30.164Z,8.70
2019-05-11T04:11:58.935Z,9.63
2019-05-11T04:14:27.753Z,9.67
2019-05-11T04:16:56.520Z,10.78
2019-05-11T04:19:25.336Z,11.00
2019-05-11T04:21:54.022Z,12.63
2019-05-11T04:24:22.760Z,10.70
2019-05-11T04:26:52.620Z,11.23
2019-05-11T04:29:21.376Z,10.45
2019-05-11T04:31:50.065Z,10.60
2019-05-11T04:34:18.882Z,11.00
2019-05-11T04:36:47.694Z,10.03
2019-05-11T04:39:16.524Z,9.10
2019-05-11T04:41:45.221Z,10.88
2019-05-11T04:44:14.040Z,10.07
2019-05-11T04:46:42.788Z,10.72
2019-05-11T04:49:11.609Z,10.77
2019-05-11T04:51:40.387Z,10.60
2019-05-11T04:54:09.134Z,10.60
2019-05-11T04:56:37.965Z,10.23
2019-05-11T04:59:06.713Z,10.15
2019-05-11T05:01:35.459Z,9.50
2019-05-11T05:04:13.686Z,9.87
2019-05-11T05:06:34.625Z,10.48
2019-05-11T05:09:05.091Z,11.43
2019-05-11T05:11:36.867Z,10.70
2019-05-11T05:14:08.124Z,10.13
2019-05-11T05:16:34.698Z,10.75
2019-05-11T05:19:04.604Z,11.47
2019-05-11T05:21:34.830Z,11.83
2019-05-11T05:24:05.354Z,12.78
2019-05-11T05:26:35.138Z,12.05
2019-05-11T05:29:03.992Z,12.80
2019-05-11T05:31:32.813Z,10.95
2019-05-11T05:34:02.781Z,10.82
2019-05-11T05:36:31.481Z,10.50
2019-05-11T05:39:00.477Z,10.23
2019-05-11T05:41:29.218Z,9.93
2019-05-11T05:43:58.396Z,9.48
2019-05-11T05:46:28.463Z,10.25
2019-05-11T05:48:57.231Z,9.83
2019-05-11T05:51:25.990Z,9.73
2019-05-11T05:53:54.789Z,10.20
2019-05-11T05:56:23.541Z,10.98
2019-05-11T05:58:52.435Z,9.90
2019-05-11T06:01:21.271Z,12.55
2019-05-11T06:03:50.035Z,10.13
2019-05-11T06:06:20.583Z,9.97
2019-05-11T06:08:50.153Z,9.95
2019-05-11T06:13:46.850Z,10.85
2019-05-11T06:16:15.532Z,14.03
2019-05-11T06:18:44.283Z,13.93
2019-05-11T06:21:13.019Z,16.23
2019-05-11T06:23:43.020Z,12.93
2019-05-11T06:26:11.780Z,12.30
2019-05-11T06:28:42.329Z,11.75
2019-05-11T06:31:12.649Z,11.00
2019-05-11T06:33:42.614Z,10.58
2019-05-11T06:36:11.356Z,10.03
2019-05-11T06:38:40.110Z,10.28
2019-05-11T06:41:08.861Z,10.35
2019-05-11T06:43:37.714Z,9.80
2019-05-11T06:46:07.498Z,8.95
2019-05-11T06:48:36.342Z,10.65
2019-05-11T06:51:05.242Z,9.78
2019-05-11T06:53:34.176Z,10.15
2019-05-11T06:56:03.027Z,11.28
2019-05-11T06:58:31.787Z,9.73
2019-05-11T07:01:00.648Z,10.13
2019-05-11T07:03:29.495Z,10.30
2019-05-11T07:05:58.242Z,10.58
2019-05-11T07:08:27.080Z,10.58
2019-05-11T07:10:55.837Z,10.18
2019-05-11T07:13:25.595Z,10.23
2019-05-11T07:15:54.378Z,10.20
2019-05-11T07:18:23.183Z,9.58
2019-05-11T07:20:52.065Z,10.05
2019-05-11T07:23:21.482Z,10.10
2019-05-11T07:28:18.907Z,10.80
2019-05-11T07:30:47.697Z,10.60
2019-05-11T07:33:18.274Z,9.30
2019-05-11T07:35:47.840Z,9.35
2019-05-11T07:38:18.392Z,8.98
2019-05-11T07:40:47.729Z,9.53
2019-05-11T07:43:18.801Z,8.68
2019-05-11T07:45:48.099Z,8.70
2019-05-11T07:48:18.635Z,8.78
2019-05-11T07:50:47.972Z,8.38
2019-05-11T07:53:18.622Z,7.60
2019-05-11T07:55:48.533Z,9.23
2019-05-11T07:58:20.308Z,8.08
2019-05-11T08:00:48.910Z,8.15
2019-05-11T08:03:18.176Z,8.05
2019-05-11T08:05:47.864Z,8.30
2019-05-11T08:08:18.108Z,8.15
2019-05-11T08:10:48.293Z,8.00
2019-05-11T08:13:17.905Z,9.43
2019-05-11T08:18:14.777Z,8.55
2019-05-11T08:20:43.599Z,6.80
2019-05-11T08:23:12.422Z,6.35
2019-05-11T08:25:41.238Z,7.42
2019-05-11T08:28:12.095Z,5.97
2019-05-11T08:30:41.631Z,8.75
2019-05-11T08:33:12.324Z,5.67
2019-05-11T08:35:41.140Z,6.97
2019-05-11T08:38:10.666Z,5.95
2019-05-11T08:40:39.493Z,5.72
2019-05-11T08:43:08.780Z,5.03
2019-05-11T08:48:08.170Z,5.53
2019-05-11T08:50:38.214Z,5.92
2019-05-11T08:53:08.637Z,6.03
2019-05-11T08:55:38.474Z,5.80
2019-05-11T08:58:08.608Z,5.40
2019-05-11T09:00:38.967Z,5.60
2019-05-11T09:03:08.563Z,5.75
2019-05-11T09:05:38.465Z,6.78
2019-05-11T09:08:08.232Z,6.97
2019-05-11T09:10:39.699Z,7.30
2019-05-11T09:13:08.046Z,7.25
2019-05-11T09:15:40.477Z,6.12
2019-05-11T09:18:08.461Z,4.97
2019-05-11T09:20:37.936Z,7.85
2019-05-11T09:25:38.405Z,10.13
2019-05-11T09:28:08.584Z,5.65
2019-05-11T09:30:37.806Z,7.83
2019-05-11T09:33:08.574Z,7.70
2019-05-11T09:35:47.585Z,5.97
2019-05-11T09:38:08.086Z,10.45
2019-05-11T09:40:38.601Z,7.53
2019-05-11T09:43:08.543Z,16.02
2019-05-11T09:45:45.781Z,24.52
2019-05-11T09:48:08.575Z,8.18
2019-05-11T09:50:38.757Z,6.22
2019-05-11T09:53:08.561Z,10.90
2019-05-11T09:55:38.870Z,46.77
2019-05-11T09:58:08.484Z,16.55
2019-05-11T10:00:38.829Z,7.95
2019-05-11T10:03:08.734Z,7.60
2019-05-11T10:05:38.981Z,5.62
2019-05-11T10:08:08.087Z,5.87
2019-05-11T10:10:38.393Z,9.98
2019-05-11T10:13:08.057Z,9.75
2019-05-11T10:15:38.558Z,19.55
2019-05-11T10:18:08.203Z,25.32
2019-05-11T10:20:39.195Z,24.82
2019-05-11T10:23:08.387Z,26.27
2019-05-11T10:25:39.126Z,30.05
2019-05-11T10:28:08.688Z,30.00
2019-05-11T10:30:38.546Z,30.62
2019-05-11T10:33:08.291Z,31.05
2019-05-11T10:35:37.981Z,30.45
2019-05-11T10:38:08.929Z,34.15
2019-05-11T10:40:38.764Z,27.13
2019-05-11T10:43:08.011Z,20.23
2019-05-11T10:45:37.883Z,15.72
2019-05-11T10:48:08.839Z,15.80
2019-05-11T10:50:38.057Z,15.18
2019-05-11T10:53:08.014Z,13.43
2019-05-11T10:55:38.638Z,17.27
2019-05-11T10:58:08.590Z,20.57
2019-05-11T11:00:38.876Z,24.40
2019-05-11T11:03:08.431Z,23.57
2019-05-11T11:05:38.506Z,20.30
2019-05-11T11:08:08.284Z,23.10
2019-05-11T11:10:37.876Z,29.35
2019-05-11T11:13:08.306Z,27.62
2019-05-11T11:15:38.068Z,27.27
2019-05-11T11:18:08.585Z,28.05
2019-05-11T11:20:38.384Z,27.58
2019-05-11T11:23:08.899Z,34.08
2019-05-11T11:25:37.783Z,28.52
2019-05-11T11:28:08.473Z,26.48
2019-05-11T11:30:39.584Z,25.95
2019-05-11T11:33:09.505Z,23.77
2019-05-11T11:35:38.535Z,23.12
2019-05-11T11:38:08.705Z,38.28
2019-05-11T11:40:38.702Z,22.20
2019-05-11T11:43:08.618Z,24.05
2019-05-11T11:45:38.117Z,26.45
2019-05-11T11:50:37.769Z,28.02
2019-05-11T11:53:08.431Z,25.97
2019-05-11T11:55:39.051Z,24.32
2019-05-11T11:58:08.370Z,22.82
2019-05-11T12:05:38.621Z,17.85
2019-05-11T12:08:08.323Z,16.85
2019-05-11T12:10:37.968Z,15.60
2019-05-11T12:13:08.659Z,14.05
2019-05-11T12:15:38.739Z,13.50
2019-05-11T12:18:08.218Z,14.07
2019-05-11T12:20:38.958Z,13.18
2019-05-11T12:23:08.792Z,15.65
2019-05-11T12:25:40.469Z,13.48
2019-05-11T12:28:08.263Z,14.30
2019-05-11T12:30:37.667Z,12.88
2019-05-11T12:35:37.806Z,12.70
2019-05-11T12:38:07.781Z,13.10
2019-05-11T12:40:38.699Z,12.03
2019-05-11T12:43:08.128Z,12.80
2019-05-11T12:45:37.619Z,12.90
2019-05-11T12:48:08.825Z,12.28
2019-05-11T12:50:37.919Z,12.23
2019-05-11T12:53:08.070Z,12.23
2019-05-11T12:55:37.925Z,12.25
2019-05-11T12:58:08.774Z,13.53
2019-05-11T13:00:39.133Z,12.85
2019-05-11T13:03:09.726Z,12.25
2019-05-11T13:05:38.549Z,12.25
2019-05-11T13:08:07.982Z,11.57
2019-05-11T13:10:37.652Z,11.12
2019-05-11T13:15:34.727Z,10.18
2019-05-11T13:18:03.598Z,11.68
2019-05-11T13:20:32.516Z,11.65
2019-05-11T13:23:03.600Z,33.30
2019-05-11T13:25:35.011Z,11.10
2019-05-11T13:28:08.572Z,10.25
2019-05-11T13:30:38.571Z,10.75
2019-05-11T13:33:08.513Z,14.83
2019-05-11T13:35:39.160Z,10.95
2019-05-11T13:38:10.486Z,13.35
2019-05-11T13:40:40.551Z,10.88
2019-05-11T13:43:10.061Z,11.88
2019-05-11T13:48:08.547Z,13.25
2019-05-11T13:50:38.708Z,12.37
2019-05-11T13:53:09.568Z,12.58
2019-05-11T13:55:38.954Z,12.90
2019-05-11T14:00:38.964Z,13.22
2019-05-11T14:03:09.415Z,14.10
2019-05-11T14:05:38.249Z,15.03
2019-05-11T14:08:08.105Z,15.23
2019-05-11T14:10:38.368Z,17.52
2019-05-11T14:13:08.745Z,19.90
2019-05-11T14:15:37.827Z,23.40
2019-05-11T14:18:09.476Z,26.65
2019-05-11T14:20:37.904Z,19.90
2019-05-11T14:23:08.638Z,18.48
2019-05-11T14:25:40.495Z,17.70
2019-05-11T14:28:09.523Z,17.82
2019-05-11T14:30:38.828Z,11.48
2019-05-11T14:43:04.122Z,12.35
2019-05-11T14:45:33.250Z,12.35
2019-05-11T14:48:02.122Z,12.55
2019-05-11T14:50:30.833Z,13.38
2019-05-11T14:52:59.587Z,13.60
2019-05-11T14:55:28.821Z,13.28
2019-05-11T14:57:58.009Z,13.30
2019-05-11T15:00:28.928Z,14.38
2019-05-11T15:02:58.510Z,13.60
2019-05-11T15:05:28.335Z,14.10
2019-05-11T15:07:58.397Z,14.63
2019-05-11T15:10:27.804Z,14.38
2019-05-11T15:15:24.655Z,16.00
2019-05-11T15:17:53.372Z,17.48
2019-05-11T15:20:22.268Z,19.00
2019-05-11T15:22:51.009Z,19.70
2019-05-11T15:25:20.099Z,21.60
2019-05-11T15:27:49.097Z,27.27
2019-05-11T15:30:19.481Z,34.03
2019-05-11T15:32:49.512Z,35.17
2019-05-11T15:35:18.983Z,41.40
2019-05-11T15:37:48.308Z,42.48
2019-05-11T15:40:23.424Z,38.92
2019-05-11T15:42:52.175Z,32.48
2019-05-11T15:45:21.018Z,33.88
2019-05-11T15:47:49.890Z,25.32
2019-05-11T15:50:20.388Z,31.93
2019-05-11T15:52:49.277Z,37.38
2019-05-11T15:55:19.039Z,25.48
2019-05-11T15:57:48.467Z,28.32
2019-05-11T16:00:20.003Z,43.92
2019-05-11T16:02:49.169Z,41.02
2019-05-11T16:05:18.614Z,30.55
2019-05-11T16:07:49.311Z,19.92
2019-05-11T16:10:19.179Z,17.82
2019-05-11T16:12:49.317Z,19.52
2019-05-11T16:15:19.206Z,18.67
2019-05-11T16:17:50.274Z,18.82
2019-05-11T16:20:21.178Z,18.32
2019-05-11T16:22:50.008Z,20.08
2019-05-11T16:25:19.662Z,17.32
2019-05-11T16:27:48.947Z,17.70
2019-05-11T16:30:21.642Z,17.50
2019-05-11T16:32:49.156Z,16.05
2019-05-11T16:35:20.267Z,18.02
2019-05-11T16:37:49.112Z,18.90
2019-05-11T16:40:20.776Z,17.45
2019-05-11T16:42:48.823Z,18.45
2019-05-11T16:45:19.653Z,17.80
2019-05-11T16:47:48.547Z,19.23
2019-05-11T16:50:18.174Z,17.73
2019-05-11T16:52:48.334Z,17.85
2019-05-11T16:55:18.256Z,19.10
2019-05-11T16:57:48.360Z,19.15
2019-05-11T17:00:17.793Z,19.95
2019-05-11T17:02:48.855Z,20.45
2019-05-11T17:05:26.078Z,20.40
2019-05-11T17:07:48.380Z,22.35
2019-05-11T17:10:18.043Z,23.32
2019-05-11T17:12:48.936Z,23.32
2019-05-11T17:15:18.800Z,23.07
2019-05-11T17:17:49.119Z,24.67
2019-05-11T17:20:19.164Z,24.82
2019-05-11T17:22:53.763Z,25.30
2019-05-11T17:25:21.386Z,25.40
2019-05-11T17:27:50.266Z,32.50
2019-05-11T17:30:19.991Z,24.75
2019-05-11T17:32:49.475Z,24.85
2019-05-11T17:35:18.479Z,24.90
2019-05-11T17:37:48.525Z,25.03
2019-05-11T17:40:20.610Z,24.55
2019-05-11T17:42:48.384Z,24.63
2019-05-11T17:45:20.519Z,24.52
2019-05-11T17:47:49.414Z,24.60
2019-05-11T17:50:19.101Z,24.25
2019-05-11T17:52:48.160Z,23.65
2019-05-11T17:55:18.435Z,23.02
2019-05-11T17:57:49.495Z,22.40
2019-05-11T18:00:20.029Z,21.55
2019-05-11T18:02:49.174Z,22.05
2019-05-11T18:05:18.183Z,22.87
2019-05-11T18:07:47.037Z,21.85
2019-05-11T18:10:18.032Z,21.27
2019-05-11T18:12:48.583Z,22.10
2019-05-11T18:15:18.560Z,21.73
2019-05-11T18:17:49.210Z,20.90
2019-05-11T18:20:21.437Z,20.70
2019-05-11T18:22:49.244Z,21.45
2019-05-11T18:25:18.759Z,20.68
2019-05-11T18:27:48.281Z,21.75
2019-05-11T18:30:17.466Z,20.65
2019-05-11T18:32:48.576Z,20.62
2019-05-11T18:35:19.116Z,20.08
2019-05-11T18:37:47.822Z,21.12
2019-05-11T18:40:18.902Z,19.15
2019-05-11T18:42:48.787Z,20.77
2019-05-11T18:45:18.944Z,19.37
2019-05-11T18:47:48.838Z,19.98
2019-05-11T18:50:29.444Z,18.57
2019-05-11T18:52:49.075Z,18.40
2019-05-11T18:57:48.940Z,16.87
2019-05-11T19:00:18.553Z,17.20
2019-05-11T19:02:49.412Z,17.30
2019-05-11T19:05:19.047Z,17.57
2019-05-11T19:07:50.304Z,17.70
2019-05-11T19:10:19.168Z,17.55
2019-05-11T19:16:28.849Z,18.48
2019-05-11T19:18:58.605Z,21.62
2019-05-11T19:21:27.588Z,18.65
2019-05-11T19:23:58.123Z,19.32
2019-05-11T19:26:26.766Z,19.12
2019-05-11T19:28:55.444Z,20.17
2019-05-11T19:31:24.279Z,21.90
2019-05-11T19:33:52.962Z,21.68
2019-05-11T19:36:21.723Z,22.53
2019-05-11T19:38:50.550Z,21.87
2019-05-11T19:41:19.376Z,21.25
2019-05-11T19:43:48.647Z,19.85
2019-05-11T19:46:18.381Z,20.68
2019-05-11T19:48:47.486Z,20.62
2019-05-11T19:51:18.714Z,21.23
2019-05-11T19:53:48.425Z,21.45
2019-05-11T19:56:18.313Z,21.70
2019-05-11T19:58:48.491Z,22.48
2019-05-11T20:01:18.789Z,25.02
2019-05-11T20:03:47.564Z,23.60
2019-05-11T20:06:16.303Z,23.30
2019-05-11T20:08:45.103Z,22.37
2019-05-11T20:11:13.848Z,23.43
2019-05-11T20:13:42.607Z,25.33
2019-05-11T20:16:11.362Z,25.17
2019-05-11T20:18:40.116Z,24.92
2019-05-11T20:21:18.796Z,24.83
2019-05-11T20:23:39.242Z,24.70
2019-05-11T20:26:08.899Z,26.35
2019-05-11T20:28:37.950Z,25.70
2019-05-11T20:31:08.018Z,25.35
2019-05-11T20:33:38.534Z,24.98
2019-05-11T20:36:08.619Z,25.02
2019-05-11T20:38:38.339Z,25.27
2019-05-11T20:46:04.833Z,26.00
2019-05-11T20:48:33.671Z,32.77
2019-05-11T20:51:02.501Z,35.08
2019-05-11T20:53:31.329Z,35.65
2019-05-11T20:56:00.163Z,36.13
2019-05-11T20:58:30.559Z,33.55
2019-05-11T21:00:59.364Z,32.55
2019-05-11T21:03:28.497Z,33.23
2019-05-11T21:05:58.608Z,33.13
2019-05-11T21:08:28.351Z,30.82
2019-05-11T21:10:58.143Z,32.15
2019-05-11T21:13:28.235Z,32.95
2019-05-11T21:15:59.123Z,32.48
2019-05-11T21:18:28.744Z,30.75
2019-05-11T21:20:59.770Z,31.80
2019-05-11T21:23:29.105Z,32.45
2019-05-11T21:25:57.958Z,32.30
2019-05-11T21:28:30.391Z,33.67
2019-05-11T21:30:58.529Z,31.40
2019-05-11T21:33:28.356Z,31.65
2019-05-11T21:36:00.481Z,32.80
2019-05-11T21:38:31.565Z,32.45
2019-05-11T21:40:58.015Z,31.30
2019-05-11T21:43:26.787Z,31.00
2019-05-11T21:45:55.538Z,31.40
2019-05-11T21:48:24.299Z,30.10
2019-05-11T21:50:53.117Z,30.63
2019-05-11T21:53:21.820Z,31.63
2019-05-11T21:55:50.671Z,32.28
2019-05-11T21:58:19.431Z,31.42
2019-05-11T22:00:50.209Z,31.03
2019-05-11T22:03:19.090Z,28.55
2019-05-11T22:05:48.523Z,30.15
2019-05-11T22:08:17.926Z,29.52
2019-05-11T22:10:46.824Z,28.77
2019-05-11T22:13:18.090Z,29.92
2019-05-11T22:15:46.002Z,30.08
2019-05-11T22:18:29.755Z,31.70
2019-05-11T22:20:45.094Z,29.57
2019-05-11T22:23:13.839Z,32.00
2019-05-11T22:25:42.622Z,31.80
2019-05-11T22:28:13.239Z,29.70
2019-05-11T22:30:42.009Z,30.48
2019-05-11T22:33:10.857Z,29.13
2019-05-11T22:35:39.690Z,30.08
2019-05-11T22:38:08.856Z,30.17
2019-05-11T22:40:38.306Z,30.00
2019-05-11T22:45:38.333Z,28.50
2019-05-11T22:48:07.881Z,29.25
2019-05-11T22:50:38.195Z,29.65
2019-05-11T22:53:08.679Z,29.02
2019-05-11T22:55:38.209Z,31.57
2019-05-11T22:58:08.442Z,30.77
2019-05-11T23:00:44.764Z,30.08
2019-05-11T23:03:13.674Z,30.15
2019-05-11T23:05:42.750Z,29.80
2019-05-11T23:08:11.582Z,29.95
2019-05-11T23:10:40.364Z,27.87
2019-05-11T23:13:11.450Z,29.13
2019-05-11T23:15:40.473Z,30.27
2019-05-11T23:18:09.456Z,32.05
2019-05-11T23:20:38.835Z,29.67
2019-05-11T23:23:08.674Z,26.45
2019-05-11T23:25:37.763Z,28.77
2019-05-11T23:28:06.551Z,29.87
2019-05-11T23:30:35.357Z,29.93
2019-05-11T23:33:04.181Z,29.12
2019-05-11T23:35:32.968Z,28.77
2019-05-11T23:38:01.732Z,29.07
2019-05-11T23:40:30.491Z,27.20
2019-05-11T23:42:59.306Z,27.35
2019-05-11T23:45:28.274Z,27.60
2019-05-11T23:47:58.906Z,24.82
2019-05-11T23:50:28.348Z,24.67
2019-05-11T23:55:29.012Z,23.60
2019-05-11T23:57:57.712Z,22.52
